Time;durP1;ratioP1;P1;durP2;ratioP2;P2;SDS_P1;SDS_P2;PMS_P1;PMS_P2;Temp;Humidity;BMP_temperature;BMP_pressure;BME280_temperature;BME280_humidity;BME280_pressure;Samples;Min_cycle;Max_cycle;Signal;HPM_P1;HPM_P2
2022/05/21 00:00:49;;;;;;;5.20;3.37;;;17.30;94.90;;;16.23;87.72;98129.31;5056404;28;20773;-81
2022/05/21 00:03:16;;;;;;;4.30;3.90;;;17.20;95.50;;;16.16;88.43;98129.50;5051070;28;20565;-78
2022/05/21 00:05:46;;;;;;;4.83;4.40;;;17.10;96.10;;;16.28;87.93;98132.13;5049168;28;20451;-80
2022/05/21 00:08:13;;;;;;;5.00;4.50;;;17.10;96.20;;;16.18;88.01;98135.53;5049841;28;20968;-78
2022/05/21 00:10:41;;;;;;;4.30;4.00;;;17.10;96.20;;;16.17;87.28;98127.63;5054272;28;20439;-79
2022/05/21 00:13:09;;;;;;;4.80;4.40;;;17.10;95.40;;;16.20;87.29;98135.28;5053324;28;20475;-80
2022/05/21 00:15:38;;;;;;;4.40;4.00;;;17.10;95.30;;;16.18;87.04;98140.16;5048521;28;20902;-79
2022/05/21 00:18:06;;;;;;;4.30;4.00;;;17.10;95.00;;;16.20;86.65;98138.00;5049662;28;20456;-79
2022/05/21 00:20:48;;;;;;;4.50;4.00;;;17.10;95.00;;;16.05;87.55;98144.03;5053048;28;20479;-79
2022/05/21 00:23:21;;;;;;;5.50;3.80;;;17.00;95.30;;;16.13;84.78;98143.63;5052318;28;20970;-78
2022/05/21 00:25:51;;;;;;;7.10;3.80;;;17.00;93.20;;;15.71;85.34;98088.44;5049161;28;21042;-79
2022/05/21 00:28:19;;;;;;;3.77;3.47;;;17.10;93.60;;;16.08;84.04;98155.28;5048420;28;20461;-80
2022/05/21 00:30:47;;;;;;;3.57;3.27;;;17.00;92.80;;;16.07;83.58;98156.34;5053449;28;20538;-81
2022/05/21 00:33:15;;;;;;;4.47;3.90;;;17.00;92.20;;;16.05;81.88;98160.38;5052474;28;20452;-79
2022/05/21 00:35:42;;;;;;;3.70;3.30;;;17.00;91.30;;;16.07;81.79;98167.25;5047579;28;20927;-80
2022/05/21 00:38:13;;;;;;;4.90;3.47;;;17.00;91.20;;;16.06;81.36;98184.69;5050224;28;20491;-79
2022/05/21 00:40:40;;;;;;;5.20;3.40;;;17.00;90.90;;;16.11;81.43;98167.59;5053658;28;20449;-81
2022/05/21 00:43:08;;;;;;;4.20;3.70;;;17.00;90.90;;;16.17;81.57;98173.94;5051147;28;20619;-80
2022/05/21 00:45:35;;;;;;;6.10;3.67;;;17.10;91.00;;;16.16;81.65;98177.75;5048672;28;21577;-78
2022/05/21 00:48:05;;;;;;;3.80;3.37;;;17.00;91.00;;;16.08;81.62;98192.63;5044959;28;20464;-79
2022/05/21 00:50:31;;;;;;;4.00;3.60;;;17.00;91.00;;;16.02;81.81;98199.88;5048683;28;20440;-80
2022/05/21 00:53:00;;;;;;;4.07;3.67;;;17.00;91.00;;;15.97;81.63;98192.44;5053119;28;20524;-77
2022/05/21 00:55:31;;;;;;;3.83;3.40;;;17.00;91.00;;;15.97;81.83;98202.50;5042280;28;20526;-78
2022/05/21 01:06:06;;;;;;;4.37;4.00;;;16.80;90.70;;;15.52;83.11;98220.47;4947419;28;20490;-79
2022/05/21 01:08:33;;;;;;;4.60;4.20;;;16.60;91.50;;;15.47;84.36;98226.63;4952584;28;20614;-79
2022/05/21 01:11:03;;;;;;;5.30;4.90;;;16.50;92.20;;;15.41;83.19;98236.59;4950045;29;20548;-79
2022/05/21 01:13:35;;;;;;;5.93;4.27;;;16.40;91.60;;;14.90;81.05;98192.81;4949242;28;20503;-80
2022/05/21 01:16:02;;;;;;;4.63;4.33;;;16.30;90.30;;;15.14;81.63;98248.00;4948325;29;21029;-77
2022/05/21 01:18:30;;;;;;;5.83;5.27;;;16.20;90.30;;;15.00;80.30;98239.28;4951962;29;20454;-78
2022/05/21 01:21:00;;;;;;;5.00;4.60;;;16.10;89.60;;;14.95;81.24;98243.78;4951212;29;20545;-79
2022/05/21 01:23:29;;;;;;;6.20;4.60;;;16.00;90.20;;;14.80;81.60;98245.09;4948111;29;20488;-77
2022/05/21 01:25:59;;;;;;;5.57;5.07;;;15.90;90.40;;;14.75;82.27;98255.03;4938906;29;20483;-77
2022/05/21 01:28:32;;;;;;;5.37;4.50;;;15.80;90.70;;;14.71;82.83;98257.38;4951383;28;20517;-78
2022/05/21 01:31:02;;;;;;;5.30;4.90;;;15.70;91.00;;;14.50;81.31;98245.22;4951037;28;20543;-80
2022/05/21 01:33:34;;;;;;;4.93;4.53;;;15.60;90.00;;;14.51;80.17;98263.97;4943186;28;20555;-78
2022/05/21 01:36:02;;;;;;;6.00;5.50;;;15.60;89.10;;;14.40;80.78;98262.06;4966286;28;20562;-76
2022/05/21 01:38:31;;;;;;;5.40;4.90;;;15.50;89.30;;;14.36;79.39;98271.75;4969597;28;20451;-79
2022/05/21 01:40:59;;;;;;;7.73;5.53;;;15.40;88.20;;;14.19;79.28;98250.69;4968892;28;21836;-78
2022/05/21 01:46:13;;;;;;;5.13;4.50;;;15.30;87.00;;;14.09;78.98;98266.75;4956901;28;20536;-78
2022/05/21 01:48:40;;;;;;;5.50;4.63;;;15.20;87.10;;;14.07;78.57;98274.28;4952233;28;20450;-76
2022/05/21 01:51:09;;;;;;;8.23;4.57;;;15.20;87.10;;;13.99;78.98;98286.31;4950493;28;20534;-78
2022/05/21 01:53:39;;;;;;;4.20;3.90;;;15.10;87.10;;;13.92;78.90;98285.59;4968914;28;20911;-77
2022/05/21 01:56:08;;;;;;;6.07;4.53;;;15.00;87.20;;;13.83;79.65;98285.91;4949738;28;20532;-77
2022/05/21 01:58:35;;;;;;;7.93;4.70;;;14.90;87.60;;;13.70;79.79;98292.34;4934231;29;20806;-78
2022/05/21 02:01:04;;;;;;;6.07;4.70;;;14.80;87.60;;;13.65;79.24;98294.09;4929466;29;20929;-78
2022/05/21 02:03:32;;;;;;;5.53;5.03;;;14.70;87.60;;;13.62;79.79;98294.56;4946698;29;20479;-78
2022/05/21 02:05:59;;;;;;;5.20;4.70;;;14.70;87.80;;;13.44;80.92;98293.53;4949435;28;20478;-80
2022/05/21 02:08:26;;;;;;;5.53;4.90;;;14.60;88.60;;;13.32;80.84;98293.41;4949736;28;20452;-79
2022/05/21 02:10:55;;;;;;;5.57;5.17;;;14.50;88.50;;;13.24;81.56;98302.69;4947997;29;20485;-76
2022/05/21 02:13:25;;;;;;;5.30;4.90;;;14.40;89.20;;;13.25;81.81;98312.47;4949961;29;20829;-78
2022/05/21 02:15:52;;;;;;;5.00;4.70;;;14.40;89.50;;;13.27;81.62;98315.81;4946407;28;20977;-79
2022/05/21 02:18:20;;;;;;;5.70;5.20;;;14.30;89.40;;;13.16;82.13;98311.94;4949621;29;20555;-79
2022/05/21 02:20:48;;;;;;;6.10;5.60;;;14.30;89.80;;;13.01;82.50;98306.91;4938766;29;20522;-77
2022/05/21 02:23:16;;;;;;;5.40;5.00;;;14.20;90.10;;;13.01;82.72;98325.88;4933888;29;20479;-80
2022/05/21 02:25:44;;;;;;;5.53;5.03;;;14.20;90.40;;;13.02;82.91;98321.28;4930317;29;20460;-79
2022/05/21 02:28:14;;;;;;;5.20;4.80;;;14.10;90.50;;;12.96;83.12;98328.41;4934977;29;20535;-77
2022/05/21 02:30:42;;;;;;;5.93;5.47;;;14.10;90.60;;;12.94;83.48;98318.88;4949017;29;20489;-79
2022/05/21 02:33:09;;;;;;;5.77;5.37;;;14.00;90.80;;;12.87;83.45;98322.44;4948934;29;20878;-77
2022/05/21 02:35:37;;;;;;;6.27;5.60;;;14.00;90.90;;;12.86;83.11;98330.81;4949283;29;20963;-78
2022/05/21 02:40:49;;;;;;;8.03;5.73;;;13.90;90.40;;;12.65;83.53;98342.91;4950063;28;20461;-78
2022/05/21 02:43:18;;;;;;;5.13;4.73;;;13.80;90.90;;;12.84;83.72;98336.47;4950057;29;20557;-76
2022/05/21 02:45:45;;;;;;;5.43;5.03;;;13.80;91.50;;;12.81;83.23;98342.34;4949169;29;20449;-79
2022/05/21 02:48:12;;;;;;;5.33;4.87;;;13.90;90.80;;;12.90;82.37;98342.88;4965660;28;20956;-77
2022/05/21 02:50:39;;;;;;;5.17;4.67;;;14.00;90.50;;;12.87;81.25;98343.34;4964286;28;20462;-78
2022/05/21 02:53:16;;;;;;;5.07;4.60;;;14.00;89.40;;;12.81;81.04;98350.47;4956316;29;20472;-78
2022/05/21 02:55:44;;;;;;;5.00;4.60;;;14.00;88.80;;;12.71;81.91;98353.69;4952059;28;20485;-76
2022/05/21 02:58:11;;;;;;;4.90;4.60;;;13.90;89.40;;;12.78;80.57;98344.66;4939756;29;20451;-77
2022/05/21 03:00:40;;;;;;;5.10;4.60;;;13.90;88.40;;;12.67;81.85;98359.75;4938998;29;20458;-77
2022/05/21 03:03:07;;;;;;;4.83;4.33;;;13.80;89.10;;;12.62;81.18;98360.41;4947322;29;20478;-78
2022/05/21 03:05:35;;;;;;;5.93;3.80;;;13.70;88.60;;;12.47;80.95;98366.97;4954486;29;21326;-78
2022/05/21 03:10:20;;;;;;;5.13;4.23;;;13.60;88.10;;;12.21;80.99;98334.66;4954621;28;20545;-75
2022/05/21 03:10:53;;;;;;;5.43;4.37;;;13.50;88.00;;;12.35;81.54;98374.16;4952477;28;20499;-79
2022/05/21 03:13:21;;;;;;;4.40;3.63;;;13.50;88.50;;;12.26;81.46;98368.16;4952130;29;20461;-79
2022/05/21 03:15:50;;;;;;;4.23;3.93;;;13.40;88.80;;;12.26;81.34;98370.88;4952325;28;20461;-77
2022/05/21 03:18:20;;;;;;;4.83;4.20;;;13.40;88.30;;;12.14;81.87;98375.34;4949078;29;20472;-78
2022/05/21 03:20:47;;;;;;;4.23;3.93;;;13.30;89.00;;;12.09;81.72;98376.00;4933193;29;20455;-78
2022/05/21 03:23:14;;;;;;;8.00;4.00;;;13.30;88.90;;;12.12;82.17;98372.84;4934184;29;20515;-78
2022/05/21 03:25:42;;;;;;;5.17;4.40;;;13.20;90.00;;;12.02;82.95;98388.72;4938501;29;20549;-78
2022/05/21 03:28:15;;;;;;;4.40;4.10;;;13.10;90.10;;;11.97;82.83;98385.81;4954168;28;20557;-77
2022/05/21 03:30:42;;;;;;;4.90;4.50;;;13.10;90.20;;;11.94;83.23;98386.25;4952514;29;20544;-77
2022/05/21 03:33:11;;;;;;;4.63;4.03;;;13.10;90.30;;;11.85;84.25;98386.47;4948724;28;20480;-79
2022/05/21 03:35:40;;;;;;;5.63;5.13;;;13.10;90.90;;;11.88;84.58;98393.34;4948747;29;20919;-78
2022/05/21 03:38:08;;;;;;;6.00;5.40;;;13.00;91.20;;;11.72;84.51;98364.88;4952938;28;20549;-78
2022/05/21 03:40:35;;;;;;;5.83;5.33;;;12.90;91.50;;;11.81;85.05;98385.25;4952632;29;20528;-77
2022/05/21 03:43:03;;;;;;;6.60;4.70;;;12.90;91.50;;;11.82;84.57;98392.31;4952333;29;20558;-78
2022/05/21 03:45:31;;;;;;;5.37;4.87;;;12.90;91.50;;;11.70;84.27;98380.50;4952548;29;20472;-79
2022/05/21 03:47:58;;;;;;;5.70;5.30;;;13.00;91.30;;;11.72;84.93;98398.19;4952190;29;20481;-78
2022/05/21 03:50:31;;;;;;;5.43;4.93;;;12.90;91.50;;;11.77;84.46;98411.91;4953185;28;20450;-77
2022/05/21 03:52:58;;;;;;;4.70;4.40;;;12.90;91.10;;;11.74;84.82;98408.78;4933517;29;20455;-78
2022/05/21 03:55:25;;;;;;;5.60;5.10;;;12.90;91.20;;;11.66;84.81;98395.50;4936841;29;20450;-77
2022/05/21 03:57:53;;;;;;;5.67;5.27;;;12.90;91.70;;;11.67;85.16;98408.81;4948048;28;20568;-77
2022/05/21 04:00:21;;;;;;;5.70;5.20;;;12.80;91.60;;;11.64;85.04;98406.53;4932812;29;20550;-76
2022/05/21 04:02:48;;;;;;;5.10;4.70;;;12.80;91.70;;;11.71;85.09;98417.34;4942910;29;21005;-78
2022/05/21 04:05:16;;;;;;;5.43;5.03;;;12.80;91.50;;;11.68;85.06;98412.34;4951696;29;20560;-75
2022/05/21 04:07:45;;;;;;;5.50;5.07;;;12.80;91.70;;;11.74;84.58;98412.34;4953190;29;20978;-77
2022/05/21 04:10:15;;;;;;;5.93;5.50;;;12.90;91.90;;;12.42;82.45;98434.56;4951573;29;21041;-78
2022/05/21 04:12:42;;;;;;;5.50;5.00;;;13.30;90.80;;;13.37;77.41;98428.41;4953970;28;20465;-77
2022/05/21 04:15:11;;;;;;;5.70;5.10;;;14.30;86.70;;;13.91;74.42;98422.47;4950502;28;20462;-78
2022/05/21 04:17:39;;;;;;;4.73;4.33;;;14.90;84.00;;;14.09;73.18;98433.31;4949891;28;20464;-78
2022/05/21 04:20:09;;;;;;;4.30;3.87;;;15.20;82.70;;;14.14;71.97;98398.13;4951749;29;20549;-77
2022/05/21 04:22:37;;;;;;;4.43;4.03;;;15.40;82.20;;;14.63;71.95;98443.44;4950356;29;20454;-77
2022/05/21 04:25:07;;;;;;;4.00;3.70;;;15.60;81.90;;;14.94;70.19;98433.41;4950497;29;20931;-77
2022/05/21 04:27:35;;;;;;;4.77;4.30;;;16.10;80.60;;;15.12;69.55;98431.66;4952201;28;20475;-76
2022/05/21 04:30:03;;;;;;;4.20;3.77;;;16.30;79.80;;;15.20;69.01;98423.13;4953431;29;20448;-78
2022/05/21 04:32:30;;;;;;;3.50;3.23;;;16.30;79.70;;;14.72;70.40;98442.09;4951107;29;20466;-78
2022/05/21 04:34:57;;;;;;;5.83;3.63;;;15.80;80.00;;;14.89;69.92;98443.34;4955034;29;20464;-76
2022/05/21 04:37:24;;;;;;;4.00;3.70;;;15.80;80.10;;;15.15;68.53;98436.63;4972958;29;20476;-75
2022/05/21 04:39:51;;;;;;;4.10;3.77;;;16.20;79.50;;;15.09;69.13;98438.38;4974837;28;20531;-75
2022/05/21 04:42:20;;;;;;;3.93;3.63;;;16.10;79.60;;;15.25;68.01;98445.03;4953928;29;20484;-77
2022/05/21 04:44:47;;;;;;;4.43;4.00;;;16.40;79.00;;;15.30;68.20;98450.59;4952807;29;20556;-79
2022/05/21 04:47:14;;;;;;;4.60;4.20;;;16.30;79.00;;;15.48;68.14;98451.53;4951733;28;20462;-78
2022/05/21 04:49:41;;;;;;;4.57;3.80;;;16.30;79.30;;;15.53;67.24;98454.38;4953172;29;20488;-78
2022/05/21 04:52:08;;;;;;;5.60;4.00;;;16.50;78.70;;;16.04;65.12;98458.50;4950593;29;20488;-78
2022/05/21 04:54:37;;;;;;;4.20;3.90;;;16.90;77.90;;;16.45;63.23;98458.47;4950806;29;20828;-78
2022/05/21 04:57:05;;;;;;;4.60;4.20;;;17.40;76.40;;;16.18;62.95;98465.34;4933400;28;20471;-77
2022/05/21 04:59:34;;;;;;;4.03;3.73;;;17.20;75.10;;;16.21;62.79;98469.47;4933344;29;20461;-77
2022/05/21 05:02:02;;;;;;;3.97;3.67;;;17.20;74.90;;;15.92;63.12;98466.69;4933214;29;20548;-77
2022/05/21 05:04:29;;;;;;;4.30;4.00;;;16.90;74.60;;;15.73;63.32;98456.72;4944846;29;20855;-77
2022/05/21 05:06:56;;;;;;;4.70;4.30;;;16.80;74.50;;;16.09;63.22;98459.44;4950806;28;20556;-76
2022/05/21 05:09:23;;;;;;;4.87;4.00;;;17.00;75.00;;;16.26;60.98;98464.13;4951192;28;20534;-77
2022/05/21 05:11:52;;;;;;;3.90;3.60;;;17.50;72.20;;;16.12;61.04;98464.41;4947795;28;20479;-77
2022/05/21 05:14:19;;;;;;;4.27;3.97;;;17.30;71.80;;;15.89;61.44;98454.38;4931716;29;20456;-77
2022/05/21 05:16:47;;;;;;;4.77;4.37;;;17.20;72.20;;;16.38;60.11;98453.19;4932488;29;20462;-76
2022/05/21 05:19:15;;;;;;;4.13;3.83;;;17.50;71.60;;;16.53;60.08;98456.22;4951413;29;20459;-77
2022/05/21 05:21:42;;;;;;;4.63;4.23;;;17.50;71.40;;;16.96;58.58;98459.44;4949109;29;20455;-76
2022/05/21 05:24:09;;;;;;;4.50;4.10;;;17.90;70.50;;;16.64;57.48;98450.94;4950037;28;20551;-77
2022/05/21 05:26:36;;;;;;;4.40;4.10;;;17.80;68.80;;;17.14;56.82;98465.75;4949534;29;20475;-76
2022/05/21 05:29:05;;;;;;;5.10;4.20;;;18.10;69.00;;;17.13;56.86;98469.56;4951322;29;20513;-77
2022/05/21 05:31:33;;;;;;;3.93;3.63;;;18.30;68.30;;;17.01;56.78;98469.66;4949709;28;20465;-76
2022/05/21 05:34:01;;;;;;;4.13;3.83;;;18.30;67.30;;;16.40;59.21;98478.31;4943032;28;20512;-74
2022/05/21 05:36:29;;;;;;;4.20;3.80;;;17.50;68.50;;;16.98;57.40;98449.09;4948845;29;20465;-76
2022/05/21 05:38:58;;;;;;;5.30;4.50;;;18.20;68.60;;;16.84;57.32;98488.69;4951758;29;20808;-77
2022/05/21 05:41:25;;;;;;;4.17;3.87;;;18.10;67.20;;;16.77;57.84;98482.56;4949937;29;20523;-76
2022/05/21 05:43:53;;;;;;;5.20;4.30;;;17.90;67.70;;;16.31;58.95;98475.16;4951427;28;20512;-76
2022/05/21 05:46:20;;;;;;;3.73;3.43;;;17.40;68.60;;;16.58;58.55;98482.75;4949134;28;20464;-77
2022/05/21 05:48:48;;;;;;;4.90;4.43;;;17.70;68.50;;;16.80;57.69;98479.34;4951330;28;20449;-77
2022/05/21 05:51:17;;;;;;;4.03;3.63;;;17.80;67.80;;;16.29;57.76;98477.28;4963981;28;20463;-76
2022/05/21 05:53:45;;;;;;;3.87;3.50;;;17.60;66.90;;;16.10;59.09;98480.16;4951534;29;20475;-78
2022/05/21 05:56:12;;;;;;;3.93;3.20;;;17.20;67.90;;;16.20;59.63;98479.53;4936878;28;20488;-75
2022/05/21 06:01:25;;;;;;;3.67;3.40;;;17.70;68.10;;;17.52;55.63;98475.13;4949197;29;20569;-82
2022/05/21 06:03:52;;;;;;;4.00;3.70;;;18.50;66.80;;;17.41;55.32;98479.56;4952944;28;20548;-83
2022/05/21 06:06:21;;;;;;;3.63;3.33;;;18.90;65.10;;;17.24;56.48;98471.41;4952637;28;20465;-85
2022/05/21 06:08:50;;;;;;;3.77;3.47;;;18.80;65.50;;;17.15;56.29;98466.59;4938827;29;20565;-84
2022/05/21 06:11:18;;;;;;;3.17;2.97;;;18.80;65.10;;;17.24;55.54;98479.59;4936357;29;20453;-80
2022/05/21 06:13:45;;;;;;;3.97;3.47;;;18.70;64.80;;;16.16;58.44;98488.47;4952683;28;20492;-80
2022/05/21 06:16:14;;;;;;;4.67;3.37;;;18.00;65.10;;;15.29;62.25;98492.50;4931434;29;20464;-82
2022/05/21 06:18:40;;;;;;;3.27;3.07;;;17.10;67.40;;;15.22;62.63;98485.50;4945522;29;20498;-82
2022/05/21 06:21:09;;;;;;;4.20;3.90;;;16.60;68.80;;;14.47;64.37;98484.88;4953083;29;20492;-71
2022/05/21 06:23:38;;;;;;;3.40;3.10;;;15.90;69.40;;;14.35;64.73;98487.53;4952432;29;20553;-86
2022/05/21 06:26:06;;;;;;;5.20;3.33;;;15.60;70.50;;;13.94;65.66;98432.88;4956233;29;20467;-79
2022/05/21 06:28:33;;;;;;;3.10;2.80;;;15.40;71.60;;;14.29;64.18;98478.41;4953064;29;20451;-79
2022/05/21 06:31:00;;;;;;;3.30;3.00;;;15.50;70.40;;;14.02;64.42;98437.97;4940209;29;20478;-80
2022/05/21 06:33:29;;;;;;;3.23;3.03;;;15.50;71.10;;;14.38;64.28;98501.50;4946182;29;20466;-83
2022/05/21 06:36:07;;;;;;;2.80;2.60;;;15.40;70.90;;;14.41;64.49;98494.81;4950099;29;20454;-80
2022/05/21 06:38:35;;;;;;;3.73;3.00;;;15.50;70.90;;;14.36;64.53;98494.63;4956451;29;20485;-81
2022/05/21 06:41:04;;;;;;;3.17;2.33;;;15.50;70.90;;;14.49;63.51;98499.91;4958325;28;20457;-85
2022/05/21 06:43:32;;;;;;;3.07;2.60;;;15.50;70.60;;;14.54;63.10;98491.06;4954578;29;20584;-83
2022/05/21 06:45:59;;;;;;;3.33;2.47;;;15.60;70.00;;;14.45;63.52;98498.72;4956537;29;20479;-83
2022/05/21 06:48:27;;;;;;;3.20;2.57;;;15.50;70.00;;;14.49;62.47;98477.34;4956111;29;20983;-85
2022/05/21 06:50:54;;;;;;;3.30;3.10;;;15.70;69.60;;;14.35;62.68;98495.69;4951925;29;20479;-81
2022/05/21 06:53:22;;;;;;;2.90;2.60;;;15.50;69.30;;;14.62;62.88;98498.06;4940994;29;20466;-85
2022/05/21 06:55:49;;;;;;;2.60;2.40;;;15.60;70.00;;;14.67;62.93;98507.19;4942221;29;20972;-89
2022/05/21 06:58:18;;;;;;;3.00;2.80;;;15.70;69.70;;;14.67;61.90;98509.94;4954519;28;20881;-82
2022/05/21 07:00:45;;;;;;;2.70;2.23;;;15.70;69.30;;;14.86;61.52;98505.31;4951422;29;20455;-79
2022/05/21 07:03:12;;;;;;;3.70;3.00;;;15.80;69.30;;;15.14;61.51;98508.44;4948351;29;20501;-88
2022/05/21 07:08:26;;;;;;;2.70;2.50;;;16.20;68.80;;;14.95;61.35;98503.06;4933674;29;20494;-84
2022/05/21 07:10:54;;;;;;;3.07;2.77;;;16.00;68.80;;;14.94;61.18;98495.13;4932224;29;20958;-79
2022/05/21 07:13:24;;;;;;;2.80;2.60;;;16.00;68.90;;;15.04;60.87;98462.75;4959513;28;20528;-84
2022/05/21 07:15:53;;;;;;;3.53;2.43;;;16.30;69.00;;;15.49;59.64;98504.94;4931535;29;20457;-81
2022/05/21 07:18:22;;;;;;;3.10;2.80;;;16.50;68.10;;;15.07;59.87;98464.16;4944025;29;20470;-85
2022/05/21 07:20:50;;;;;;;3.70;2.33;;;16.50;67.70;;;15.12;60.82;98507.84;4950542;29;20458;-85
2022/05/21 07:23:17;;;;;;;3.67;2.53;;;16.20;68.40;;;15.42;59.88;98498.78;4953150;29;20922;-80
2022/05/21 07:25:46;;;;;;;2.53;2.30;;;16.40;68.40;;;15.51;59.12;98502.81;4980017;28;20488;-73
2022/05/21 07:28:13;;;;;;;2.40;2.20;;;16.60;67.60;;;15.31;60.54;98503.13;4967095;28;20443;-73
2022/05/21 07:30:44;;;;;;;3.27;2.13;;;16.30;68.10;;;15.49;60.13;98496.75;4964945;28;20527;-76
2022/05/21 07:33:13;;;;;;;2.80;2.57;;;16.50;68.40;;;15.21;61.47;98495.53;4965776;28;20445;-71
2022/05/21 07:35:41;;;;;;;3.03;2.83;;;16.40;68.40;;;15.34;60.85;98504.56;5013604;23;20515;-72
2022/05/21 07:38:11;;;;;;;2.60;2.50;;;16.30;69.00;;;15.66;59.98;98504.22;5011590;28;20476;-83
2022/05/21 07:40:40;;;;;;;2.40;2.20;;;16.50;68.80;;;16.17;58.31;98501.03;4996905;28;20507;-81
2022/05/21 07:43:12;;;;;;;2.63;2.40;;;16.90;68.20;;;16.46;57.35;98498.34;4997449;28;20540;-87
2022/05/21 07:45:42;;;;;;;2.93;2.23;;;17.30;67.30;;;16.36;56.23;98494.34;5011184;28;20485;-85
2022/05/21 07:48:12;;;;;;;2.70;2.50;;;17.40;65.40;;;15.68;57.12;98502.09;5014276;28;20458;-77
2022/05/21 07:50:41;;;;;;;2.50;2.30;;;16.90;65.60;;;15.43;58.78;98498.53;5015400;28;21169;-86
2022/05/21 07:53:11;;;;;;;2.90;2.70;;;16.50;66.90;;;15.44;59.11;98507.53;5010516;28;20682;-83
2022/05/21 07:55:39;;;;;;;2.93;2.73;;;16.50;66.60;;;15.41;59.40;98511.56;4993105;28;20454;-81
2022/05/21 07:58:07;;;;;;;2.57;2.37;;;16.40;67.10;;;15.63;58.14;98507.44;5007225;28;20455;-80
2022/05/21 08:00:34;;;;;;;2.50;2.03;;;16.60;66.50;;;15.50;58.45;98514.75;5009764;28;20806;-86
2022/05/21 08:03:02;;;;;;;3.03;2.73;;;16.50;66.30;;;15.59;58.22;98507.06;5004853;28;20568;-80
2022/05/21 08:05:30;;;;;;;3.90;2.50;;;16.60;66.40;;;16.00;58.16;98507.22;4992702;28;20504;-83
2022/05/21 08:07:57;;;;;;;3.00;2.40;;;16.80;67.10;;;15.85;57.40;98459.47;4994816;28;20445;-84
2022/05/21 08:10:24;;;;;;;5.37;2.70;;;17.10;66.30;;;16.80;55.69;98506.63;4993981;28;20476;-82
2022/05/21 08:12:52;;;;;;;2.43;2.23;;;17.60;65.70;;;16.70;56.36;98505.34;4991230;28;20477;-82
2022/05/21 08:15:22;;;;;;;3.03;2.73;;;17.70;65.60;;;16.66;57.16;98506.91;5014678;28;20445;-83
2022/05/21 08:17:49;;;;;;;2.63;2.40;;;17.60;66.40;;;16.58;56.77;98507.28;4998445;28;20506;-82
2022/05/21 08:20:18;;;;;;;2.90;2.63;;;17.60;66.00;;;16.33;56.40;98467.56;5005342;28;20463;-71
2022/05/21 08:28:16;;;;;;;3.23;1.87;;;17.00;65.00;;;16.21;56.20;98510.38;4986070;28;20852;-81
2022/05/21 08:30:46;;;;;;;2.70;1.80;;;17.10;64.80;;;16.21;54.52;98502.19;5012390;28;20461;-81
2022/05/21 08:33:14;;;;;;;4.67;2.07;;;17.20;63.50;;;16.67;54.73;98513.19;5013915;28;20500;-86
2022/05/21 08:35:43;;;;;;;2.40;2.13;;;17.50;64.00;;;16.84;53.12;98510.50;4994364;28;20523;-86
2022/05/21 08:38:13;;;;;;;16.50;2.33;;;17.80;62.70;;;17.31;52.98;98511.34;4996220;28;20517;-84
2022/05/21 08:40:45;;;;;;;3.03;2.47;;;18.20;63.10;;;17.17;52.02;98508.94;5016251;28;20436;-73
2022/05/21 08:43:21;;;;;;;2.97;2.20;;;18.30;61.90;;;17.05;53.77;98509.00;5027315;28;20455;-74
2022/05/21 08:46:07;;;;;;;3.43;1.87;;;18.00;62.50;;;17.02;52.66;98500.47;5013222;28;20472;-81
2022/05/21 08:48:35;;;;;;;2.80;1.70;;;18.10;62.80;;;16.74;53.89;98523.94;4996672;28;20908;-86
2022/05/21 08:51:14;;;;;;;2.53;1.90;;;17.80;62.10;;;16.43;54.84;98530.47;5015763;28;20944;-80
2022/05/21 08:53:49;;;;;;;4.00;2.30;;;17.60;62.50;;;16.16;54.90;98526.63;5016530;28;20461;-84
2022/05/21 08:56:18;;;;;;;3.50;2.90;;;17.20;62.40;;;16.18;53.04;98476.25;5014090;28;20449;-85
2022/05/21 08:58:49;;;;;;;2.50;2.17;;;17.30;61.40;;;16.81;51.15;98511.81;5013554;28;20469;-82
2022/05/21 09:01:19;;;;;;;2.50;2.30;;;17.70;60.30;;;16.68;51.62;98482.94;5019493;28;20456;-81
2022/05/21 09:03:47;;;;;;;3.03;2.67;;;17.80;60.10;;;17.01;51.84;98490.63;4989368;28;21113;-83
2022/05/21 09:06:31;;;;;;;2.30;2.10;;;18.00;60.80;;;17.50;52.21;98499.09;4999777;28;20495;-80
2022/05/21 09:09:05;;;;;;;3.00;2.57;;;18.30;61.90;;;17.47;50.59;98494.13;4996106;28;20451;-86
2022/05/21 09:11:39;;;;;;;2.10;1.90;;;18.40;60.20;;;17.46;50.37;98492.47;4976386;28;20486;-85
2022/05/21 09:14:15;;;;;;;3.30;2.60;;;18.50;59.80;;;17.44;50.76;98456.41;5013151;28;20488;-84
2022/05/21 09:16:56;;;;;;;2.60;2.40;;;18.50;60.00;;;17.91;50.29;98489.84;4978842;28;20455;-82
2022/05/21 09:19:28;;;;;;;2.23;2.13;;;18.80;60.00;;;17.97;50.14;98488.88;4997869;28;20464;-77
2022/05/21 09:22:01;;;;;;;2.63;2.43;;;18.90;59.80;;;17.68;49.28;98475.34;5016789;28;20484;-79
2022/05/21 09:24:45;;;;;;;3.00;2.80;;;18.70;58.70;;;17.65;50.44;98475.81;5022710;28;20481;-78
2022/05/21 09:27:31;;;;;;;3.63;2.83;;;18.60;59.20;;;17.65;50.88;98478.56;5002134;28;20461;-80
2022/05/21 09:30:18;;;;;;;2.83;2.27;;;18.60;59.50;;;18.13;50.25;98481.72;4994710;28;20453;-78
2022/05/21 09:32:51;;;;;;;2.80;2.30;;;19.00;59.90;;;18.29;48.74;98479.16;4999460;28;20462;-83
2022/05/21 09:35:21;;;;;;;3.50;2.27;;;19.20;58.80;;;18.21;49.29;98474.97;5012352;28;20462;-71
2022/05/21 09:37:51;;;;;;;3.00;2.10;;;19.10;58.90;;;18.02;49.39;98472.56;5015806;28;20460;-79
2022/05/21 09:40:36;;;;;;;1.87;1.77;;;19.10;58.70;;;18.08;49.44;98474.25;5015115;28;20456;-80
2022/05/21 09:46:18;;;;;;;1.60;1.50;;;19.10;57.00;;;18.41;48.12;98466.19;4997799;28;20478;-83
2022/05/21 09:48:46;;;;;;;2.43;2.20;;;19.30;57.80;;;17.75;48.50;98388.53;5009542;28;20464;-72
2022/05/21 09:51:30;;;;;;;2.30;1.67;;;19.30;57.80;;;18.26;49.93;98472.28;5011329;28;20491;-83
2022/05/21 09:54:00;;;;;;;2.23;1.67;;;19.10;58.80;;;17.71;49.22;98480.31;5010782;28;20450;-73
2022/05/21 09:56:31;;;;;;;1.83;1.60;;;18.80;57.50;;;17.70;50.06;98473.19;5012508;28;20478;-83
2022/05/21 09:59:14;;;;;;;4.23;1.80;;;18.70;58.00;;;18.10;48.98;98471.28;4999809;28;20553;-83
2022/05/21 10:01:44;;;;;;;2.20;1.57;;;18.90;58.30;;;18.58;48.42;98479.78;5001693;28;20448;-74
2022/05/21 10:04:23;;;;;;;3.53;1.77;;;19.30;58.00;;;18.74;47.81;98474.47;4977792;28;20451;-80
2022/05/21 10:06:56;;;;;;;1.83;1.67;;;19.60;57.70;;;18.54;47.33;98432.13;4994806;28;20457;-78
2022/05/21 10:12:22;;;;;;;2.00;1.80;;;19.40;57.20;;;17.65;49.58;98481.28;4996663;28;20462;-76
2022/05/21 10:14:55;;;;;;;2.80;1.90;;;18.80;57.50;;;17.68;49.94;98472.63;5015176;28;20729;-77
2022/05/21 10:17:32;;;;;;;1.87;1.47;;;18.60;58.00;;;17.78;50.06;98464.53;5015178;28;20474;-80
2022/05/21 10:20:12;;;;;;;2.10;1.90;;;18.60;58.00;;;17.93;49.49;98461.19;5021653;28;20466;-76
2022/05/21 10:22:48;;;;;;;1.50;1.40;;;18.80;57.80;;;18.03;48.98;98462.44;5008037;28;20451;-72
2022/05/21 10:25:20;;;;;;;1.80;1.70;;;18.90;57.50;;;18.06;48.24;98460.03;5010556;28;20470;-71
2022/05/21 10:28:26;;;;;;;6.23;1.47;;;19.00;56.90;;;18.08;47.74;98462.50;5005645;28;20454;-81
2022/05/21 10:31:20;;;;;;;4.70;1.50;;;18.90;57.00;;;18.08;48.14;98451.59;4996964;28;20511;-82
2022/05/21 10:34:04;;;;;;;1.73;1.63;;;19.00;56.70;;;18.01;47.92;98459.94;5013857;28;20451;-82
2022/05/21 10:36:47;;;;;;;1.40;1.30;;;19.00;56.30;;;18.38;48.13;98445.63;4978882;28;20468;-84
2022/05/21 10:39:46;;;;;;;3.60;1.37;;;19.20;57.10;;;18.25;46.03;98454.22;5013409;28;20542;-74
2022/05/21 10:42:36;;;;;;;1.67;1.20;;;19.30;55.50;;;18.23;46.90;98451.78;5013108;28;20445;-83
2022/05/21 10:45:17;;;;;;;1.90;1.20;;;19.10;55.70;;;18.19;46.35;98449.78;4976553;28;20487;-83
2022/05/21 10:48:16;;;;;;;1.97;1.00;;;19.20;55.50;;;18.78;44.96;98453.72;5009235;28;20461;-82
2022/05/21 10:50:52;;;;;;;1.33;1.00;;;19.50;54.30;;;19.04;43.55;98457.53;5012321;28;20450;-81
2022/05/21 10:54:08;;;;;;;2.20;1.20;;;19.90;53.70;;;19.51;41.78;98445.03;5012384;28;20967;-79
2022/05/21 10:56:46;;;;;;;1.13;1.03;;;20.40;52.70;;;20.00;42.56;98448.63;5013401;28;20467;-82
2022/05/21 10:59:32;;;;;;;1.83;1.40;;;20.70;53.40;;;19.96;42.38;98455.75;5022051;28;20458;-83
2022/05/21 11:02:17;;;;;;;1.20;1.10;;;20.80;53.70;;;20.27;42.17;98444.91;5013137;28;20522;-83
2022/05/21 11:05:03;;;;;;;2.23;1.20;;;21.10;53.70;;;19.89;42.73;98434.03;5012967;28;20447;-82